MDT,Max TemperatureF,Mean TemperatureF,Min TemperatureF,Max Dew PointF,MeanDew PointF,Min DewpointF,Max Humidity, Mean Humidity, Min Humidity, Max Sea Level PressureIn, Mean Sea Level PressureIn, Min Sea Level PressureIn, Max VisibilityMiles, Mean VisibilityMiles, Min VisibilityMiles, Max Wind SpeedMPH, Mean Wind SpeedMPH, Max Gust SpeedMPH,PrecipitationIn, CloudCover, Events, WindDirDegrees
2012-10-1,78,62,46,45,36,32,66,40,18,30.29,30.19,30.05,10,10,10,6,2,,0.00,0,,14
2012-10-2,80,60,41,41,37,27,81,47,18,30.06,29.99,29.91,10,8,2,12,3,21,0.00,1,,7
2012-10-3,64,52,35,27,16,9,65,26,11,30.26,30.17,29.97,10,10,9,20,10,28,0.00,1,,309
2012-10-4,60,46,32,23,19,16,65,37,17,30.24,30.19,30.13,10,10,6,12,4,,0.00,2,,219
2012-10-5,59,44,30,27,21,16,75,41,19,30.31,30.24,30.18,10,9,5,10,4,,0.00,1,,305
2012-10-6,60,44,28,27,20,14,75,42,16,30.32,30.24,30.17,10,10,0,17,4,24,0.00,3,,120
2012-10-7,64,47,30,27,18,12,65,39,13,30.25,30.16,30.05,10,10,5,9,4,,0.00,3,,123
2012-10-8,66,47,28,28,20,12,70,41,15,30.07,30.01,29.92,10,10,7,8,2,,0.00,1,,136
2012-10-9,71,50,28,34,26,21,86,49,17,30.07,30.01,29.97,10,9,2,6,2,,0.00,1,,330
2012-10-10,69,52,35,36,29,23,66,44,23,30.05,29.97,29.88,10,10,3,8,3,,0.00,0,,142
2012-10-11,71,52,33,37,31,27,81,51,22,29.99,29.91,29.84,10,10,5,6,2,,0.00,0,,124
2012-10-12,75,56,37,34,31,28,76,48,19,29.93,29.86,29.80,10,10,7,8,2,,0.00,1,,347
2012-10-13,68,58,46,52,44,39,88,59,37,30.27,30.17,29.96,10,9,3,14,9,21,0.02,4,,322
2012-10-14,77,58,39,41,39,36,93,53,24,30.29,30.19,30.01,10,10,10,12,5,17,0.00,0,,128
2012-10-15,71,61,51,50,44,36,94,56,38,30.11,30.01,29.90,10,10,2,8,4,,0.01,4,,111
2012-10-16,64,55,41,57,43,21,100,65,27,30.19,29.94,29.78,10,9,2,30,9,40,0.20,4,,350
2012-10-17,55,45,35,32,30,27,81,58,33,30.32,30.26,30.19,10,10,2,9,4,,0.00,0,,324
2012-10-18,64,48,32,37,31,27,100,65,24,30.34,30.26,30.10,10,10,10,6,1,,0.00,0,,137
2012-10-19,57,49,41,43,34,28,71,57,38,30.08,29.97,29.79,10,10,6,8,5,,0.00,4,,126
2012-10-20,62,53,44,48,38,28,100,62,32,29.86,29.82,29.79,10,10,6,14,6,23,0.00,5,,314
2012-10-21,55,44,32,32,28,23,100,58,29,29.92,29.86,29.78,10,10,7,7,3,,0.00,1,,321
2012-10-22,51,42,33,45,34,23,93,74,40,29.78,29.69,29.59,10,9,4,14,4,24,0.04,4,,148
2012-10-23,50,41,32,37,30,23,100,68,35,29.99,29.88,29.75,10,10,5,17,7,23,0.05,4,,198
2012-10-24,44,36,28,37,31,27,100,84,53,30.14,30.04,29.99,10,10,6,10,6,17,0.00,3,,140
2012-10-25,48,40,32,39,32,28,100,86,46,30.44,30.31,30.15,10,7,0,14,2,,0.00,4,,342
2012-10-26,48,37,26,30,27,23,100,67,37,30.46,30.30,30.15,10,10,10,16,6,22,0.00,4,,139
2012-10-27,48,39,30,41,34,27,100,80,54,30.20,30.16,30.11,10,10,8,10,2,,0.00,5,,18
2012-10-28,53,46,39,50,44,39,100,97,77,30.13,30.08,30.04,10,9,3,8,2,,0.00,7,,301
2012-10-29,68,54,39,54,44,39,100,87,40,30.14,30.09,30.02,10,5,0,10,2,,0.00,4,,39
2012-10-30,71,58,44,48,41,32,100,66,23,30.13,30.06,29.97,10,9,4,9,3,,0.00,2,,124
2012-10-31,62,53,44,46,37,32,93,57,34,29.99,29.91,29.83,10,10,10,10,5,,0.00,0,,154